Aeroporto :
LOGIN :

Iscrizione | Disclaimer

   EN    FR    IT 

 










Sommario :    VFR   VFR Marginale   IFR   IFR Intensivo   IFR Molto Intensivo
Visibilità : 
Base nubi : 
>= 8 km
>= 3000ft
5 / 8 km
1000 / 3000 ft
1500m / 5 km
500 / 1000 ft
800 / 1500m
200 / 500 ft
< 800m
< 200 ft
Simboli :   Temporali  Nebbia  Neve Forte  Precipitazioni Forti  Vento > 20 kt
SIGMETs :   Varie  Temporali  Ghiacco  Turbolenza  Onda orograficha  Ceneri Vulcaniche






- Altitudine del aeroporto : 70 ft
- Codice IATA : LEI


LEAM - Almeria

ULTIMO METAR :
  • 181730Z 22017KT CAVOK 25/19 Q1009

METARs OBSOLETI :
  • 181700Z 23018G28KT 200V260 CAVOK 28/14 Q1010
  • 181630Z 23016KT CAVOK 26/16 Q1010
  • 181600Z 23017KT CAVOK 25/18 Q1010
  • 181530Z 21012KT 170V230 CAVOK 26/19 Q1010
  • 181500Z 21014KT 180V240 CAVOK 25/19 Q1011
  • 181430Z 21015KT 170V250 CAVOK 25/18 Q1011
  • 181400Z 20011KT 170V230 CAVOK 25/19 Q1012
  • 181330Z 19011KT 150V230 CAVOK 24/18 Q1012
  • 181300Z 20012KT CAVOK 25/20 Q1012

TAF TAF LEAM
Valido dal 18 a 18 ore il 19 a 18 ore UTC


181700Z 1818/1918 23013KT CAVOK TX25/1818Z TN19/1905Z
PROB40
TEMPO 1818/1908 21015G25KT
BECMG 1909/1912 22023KT
PROB40
TEMPO 1910/1918 22025G35KT
PROB30
TEMPO 1912/1918 22028G43KT



MetMap, La meteo Aeronautica in un colpo d'occhio ! - Copyright ORBIFLY Dicembre 2007 - Disclaimer

ORBIFLY MET'MAP TEAM :

Programmazione e sviluppo : Alexandra Zaïnal
Concezione : Baudouin d'Aumeries
Supporto tecnico e logistico : Manuel Goepfert
Aiuto : Marc-Olivier Méhu
Aiuto per la traduzione : Arnaldo La Scala




FONTI E CREDITI :

   NOAA